Alpine, Oregon
Current Conditions -  °F | °C
As of 5:35 PM on Wednesday 26 Nov 2014 (Local Time) from KCVO Reporting Station
Clear Clear  
Wind Chill: 52°   Ceiling: Unl
Heat Index: 52°   Visibility: 10mi
Dew Point: 48°   Wind: 0mph
Humidity: 88%   Direction: NA
Pressure: 30.06"   Gusts: NA
Location:  44.3398°N, 123.353°W
Report Text: KCVO 270135Z AUTO 00000KT 10SM CLR 11/09 A3006 RMK AO1
Loading
Personal Weather Stations






























Interactive Weather Map New forecast layout! Learn more

10-Day Weather Forecast

Advertisements
Track Severe Weather on mobile